Time;durP1;ratioP1;P1;durP2;ratioP2;P2;SDS_P1;SDS_P2;PMS_P1;PMS_P2;Temp;Humidity;BMP_temperature;BMP_pressure;BME280_temperature;BME280_humidity;BME280_pressure;Samples;Min_cycle;Max_cycle;Signal;HPM_P1;HPM_P2
2023/07/02 00:00:20;;;;;;;2.63;2.10;;;27.30;52.30;;;;;;4952192;28;20445;-78
2023/07/02 00:02:48;;;;;;;3.73;2.77;;;27.20;52.20;;;;;;4956192;29;20450;-79
2023/07/02 00:05:17;;;;;;;2.20;2.00;;;27.30;52.20;;;;;;4954118;28;20984;-79
2023/07/02 00:07:44;;;;;;;4.00;2.03;;;27.20;52.20;;;;;;4946269;29;20417;-78
2023/07/02 00:10:13;;;;;;;2.80;2.10;;;27.20;52.30;;;;;;4945213;29;20417;-78
2023/07/02 00:12:44;;;;;;;10.37;2.30;;;27.10;52.20;;;;;;4953479;29;20406;-79
2023/07/02 00:15:12;;;;;;;4.57;2.20;;;27.10;52.20;;;;;;4954333;28;20509;-79
2023/07/02 00:17:40;;;;;;;3.70;2.17;;;27.10;52.40;;;;;;4954762;29;20456;-78
2023/07/02 00:20:14;;;;;;;3.53;2.10;;;27.20;52.30;;;;;;4950875;29;20413;-79
2023/07/02 00:22:45;;;;;;;4.67;2.60;;;27.20;52.90;;;;;;4952234;28;20458;-80
2023/07/02 00:25:14;;;;;;;2.30;1.90;;;27.20;52.80;;;;;;4951391;29;20463;-78
2023/07/02 00:27:43;;;;;;;1.93;1.83;;;27.20;52.00;;;;;;4956275;29;20510;-78
2023/07/02 00:30:12;;;;;;;2.50;2.10;;;27.20;52.10;;;;;;4951542;29;21022;-78
2023/07/02 00:32:40;;;;;;;2.87;2.20;;;27.20;52.00;;;;;;4955153;29;20430;-78
2023/07/02 00:35:08;;;;;;;2.17;1.97;;;27.20;52.00;;;;;;4952548;29;20478;-79
2023/07/02 00:37:37;;;;;;;3.53;2.40;;;27.20;52.00;;;;;;4950418;28;20454;-78
2023/07/02 00:40:06;;;;;;;2.30;1.83;;;27.20;52.00;;;;;;4955725;29;20515;-79
2023/07/02 00:42:35;;;;;;;2.90;1.70;;;27.20;51.90;;;;;;4956761;29;20468;-78
2023/07/02 00:45:07;;;;;;;2.90;2.20;;;27.30;52.00;;;;;;4958177;29;20480;-78
2023/07/02 00:47:35;;;;;;;2.20;2.00;;;27.20;51.70;;;;;;4957526;28;20425;-79
2023/07/02 00:50:03;;;;;;;3.57;2.43;;;27.20;51.90;;;;;;4964614;28;20576;-78
2023/07/02 00:52:31;;;;;;;1.80;1.70;;;27.20;51.70;;;;;;4954382;29;20454;-78
2023/07/02 00:54:59;;;;;;;1.90;1.80;;;27.20;51.80;;;;;;4956212;29;20562;-79
2023/07/02 00:57:29;;;;;;;2.50;2.30;;;27.20;51.70;;;;;;4955864;29;20451;-78
2023/07/02 01:00:00;;;;;;;2.33;2.13;;;27.20;51.60;;;;;;4955923;29;20434;-78
2023/07/02 01:02:29;;;;;;;5.13;2.40;;;27.20;51.60;;;;;;4954755;28;20477;-78
2023/07/02 01:04:59;;;;;;;2.13;1.93;;;27.20;51.60;;;;;;4955147;28;20467;-78
2023/07/02 01:07:29;;;;;;;2.47;2.27;;;27.20;51.70;;;;;;4951599;29;20441;-78
2023/07/02 01:09:57;;;;;;;2.40;2.20;;;27.20;51.60;;;;;;4954486;29;20422;-80
2023/07/02 01:12:25;;;;;;;5.63;2.27;;;27.20;51.60;;;;;;4954567;29;20458;-78
2023/07/02 01:14:54;;;;;;;6.60;2.20;;;27.20;51.50;;;;;;4955043;29;20473;-79
2023/07/02 01:17:22;;;;;;;3.47;2.00;;;27.20;51.80;;;;;;4956436;29;20475;-78
2023/07/02 01:19:53;;;;;;;2.53;2.20;;;27.20;51.60;;;;;;4956797;29;20962;-78
2023/07/02 01:22:22;;;;;;;6.93;2.07;;;27.20;51.50;;;;;;4948951;29;20467;-79
2023/07/02 01:24:50;;;;;;;5.43;2.40;;;27.20;51.50;;;;;;4956753;29;21027;-78
2023/07/02 01:27:18;;;;;;;3.97;1.97;;;27.10;51.50;;;;;;4953018;28;20438;-77
2023/07/02 01:29:46;;;;;;;2.10;2.00;;;27.10;51.40;;;;;;4955428;28;20430;-79
2023/07/02 01:32:15;;;;;;;3.37;2.57;;;27.10;51.40;;;;;;4956256;29;20417;-79
2023/07/02 01:34:43;;;;;;;1.83;1.73;;;27.10;51.50;;;;;;4956119;28;21012;-79
2023/07/02 01:37:14;;;;;;;2.30;2.20;;;27.10;51.40;;;;;;4952219;28;20536;-78
2023/07/02 01:39:42;;;;;;;2.60;2.10;;;27.10;51.40;;;;;;4956548;28;20489;-79
2023/07/02 01:42:11;;;;;;;3.10;2.10;;;27.10;51.50;;;;;;4954557;28;20483;-78
2023/07/02 01:44:39;;;;;;;3.27;2.50;;;27.10;51.40;;;;;;4955549;29;20459;-79
2023/07/02 01:47:08;;;;;;;4.40;2.33;;;27.10;51.50;;;;;;4955919;28;20482;-79
2023/07/02 01:49:37;;;;;;;3.00;2.00;;;27.10;51.50;;;;;;4956019;29;20509;-79
2023/07/02 01:52:06;;;;;;;2.60;2.40;;;27.10;51.30;;;;;;4954874;29;20874;-78
2023/07/02 01:54:36;;;;;;;2.80;2.50;;;27.00;51.20;;;;;;4954859;29;20501;-78
2023/07/02 01:57:05;;;;;;;2.83;2.10;;;27.00;51.40;;;;;;4954568;29;20471;-78
2023/07/02 01:59:33;;;;;;;4.43;2.30;;;27.00;51.30;;;;;;4945150;29;20551;-79
2023/07/02 02:02:01;;;;;;;6.93;2.63;;;27.00;51.30;;;;;;4951747;29;20537;-78
2023/07/02 02:04:29;;;;;;;3.07;2.83;;;27.00;51.30;;;;;;4953838;28;20532;-77
2023/07/02 02:06:57;;;;;;;3.23;2.53;;;27.00;51.30;;;;;;4954044;29;20455;-78
2023/07/02 02:09:28;;;;;;;4.40;2.57;;;27.00;51.30;;;;;;4954152;28;20520;-78
2023/07/02 02:11:57;;;;;;;2.40;2.30;;;27.00;51.30;;;;;;4955128;29;20455;-78
2023/07/02 02:14:26;;;;;;;3.37;2.80;;;27.00;51.30;;;;;;4956637;28;20540;-79
2023/07/02 02:16:54;;;;;;;3.50;3.20;;;27.00;51.20;;;;;;4953021;29;20542;-78
2023/07/02 02:19:22;;;;;;;5.30;3.70;;;27.00;51.20;;;;;;4952007;28;20428;-78
2023/07/02 02:21:50;;;;;;;6.00;4.00;;;27.00;51.20;;;;;;4953716;29;20556;-78
2023/07/02 02:24:19;;;;;;;3.90;3.60;;;27.00;51.20;;;;;;4953507;29;20426;-79
2023/07/02 02:26:47;;;;;;;8.80;3.93;;;27.00;51.10;;;;;;4954121;29;20453;-79
2023/07/02 02:29:17;;;;;;;4.80;4.40;;;27.00;51.10;;;;;;4953115;29;20437;-78
2023/07/02 02:31:45;;;;;;;5.53;4.60;;;26.90;51.00;;;;;;4959936;28;20926;-77
2023/07/02 02:34:13;;;;;;;7.00;4.67;;;26.90;51.20;;;;;;4955099;28;20430;-79
2023/07/02 02:36:41;;;;;;;6.20;5.03;;;26.90;51.00;;;;;;4943865;28;20453;-79
2023/07/02 02:39:10;;;;;;;7.63;5.07;;;26.90;51.00;;;;;;4953003;29;20449;-78
2023/07/02 02:41:37;;;;;;;6.20;5.33;;;26.90;51.10;;;;;;4952418;28;20481;-79
2023/07/02 02:44:06;;;;;;;5.93;5.13;;;26.90;50.90;;;;;;4952877;29;20512;-78
2023/07/02 02:46:35;;;;;;;11.97;5.77;;;26.90;51.00;;;;;;4952704;29;20484;-78
2023/07/02 02:49:04;;;;;;;7.00;5.30;;;26.90;50.90;;;;;;4902999;29;1390960;-78
2023/07/02 02:51:32;;;;;;;6.47;5.50;;;26.90;51.00;;;;;;4949281;29;20293;-77
2023/07/02 02:54:00;;;;;;;8.63;5.90;;;26.90;51.00;;;;;;4953178;28;20483;-76
2023/07/02 02:56:28;;;;;;;12.70;5.70;;;26.80;50.90;;;;;;4939524;28;20537;-79
2023/07/02 02:58:56;;;;;;;7.73;5.80;;;26.80;50.80;;;;;;4954902;28;20436;-78
2023/07/02 03:01:24;;;;;;;10.20;6.67;;;26.80;50.90;;;;;;4947641;28;20421;-79
2023/07/02 03:03:54;;;;;;;7.23;5.70;;;26.80;50.70;;;;;;4955515;28;20474;-78
2023/07/02 03:06:22;;;;;;;9.60;5.80;;;26.80;50.80;;;;;;4955722;28;20475;-78
2023/07/02 03:08:50;;;;;;;7.10;5.77;;;26.80;50.80;;;;;;4962685;28;20470;-79
2023/07/02 03:11:18;;;;;;;8.03;6.03;;;26.80;50.90;;;;;;4949315;28;20472;-78
2023/07/02 03:13:47;;;;;;;11.10;6.83;;;26.70;50.60;;;;;;4952696;28;20417;-77
2023/07/02 03:16:15;;;;;;;9.60;6.00;;;26.80;50.70;;;;;;4953130;29;20471;-77
2023/07/02 03:18:43;;;;;;;8.37;6.07;;;26.80;50.80;;;;;;4953171;29;20481;-78
2023/07/02 03:21:12;;;;;;;7.87;6.20;;;26.80;50.70;;;;;;4952722;29;20430;-78
2023/07/02 03:23:41;;;;;;;7.70;6.30;;;26.80;50.80;;;;;;4952176;29;20471;-78
2023/07/02 03:26:09;;;;;;;7.97;6.77;;;26.80;50.70;;;;;;4948075;29;20457;-79
2023/07/02 03:28:37;;;;;;;8.90;6.10;;;26.80;50.70;;;;;;4953943;28;20451;-79
2023/07/02 03:31:05;;;;;;;9.90;6.70;;;26.80;50.70;;;;;;4954497;28;20485;-78
2023/07/02 03:33:34;;;;;;;10.00;6.70;;;26.70;50.60;;;;;;4956186;29;20429;-78
2023/07/02 03:36:02;;;;;;;8.90;6.47;;;26.80;50.50;;;;;;4952752;29;20528;-79
2023/07/02 03:38:32;;;;;;;9.13;6.03;;;26.80;50.50;;;;;;4953227;29;20422;-78
2023/07/02 03:41:00;;;;;;;11.53;6.10;;;26.70;50.50;;;;;;4950183;29;20529;-78
2023/07/02 03:43:28;;;;;;;8.03;6.37;;;26.80;50.50;;;;;;4952892;28;20540;-78
2023/07/02 03:45:58;;;;;;;8.60;6.30;;;26.70;50.50;;;;;;4952890;29;20905;-78
2023/07/02 03:48:26;;;;;;;10.00;5.90;;;26.70;50.40;;;;;;4946066;28;20429;-78
2023/07/02 03:50:55;;;;;;;10.20;6.27;;;26.70;50.40;;;;;;4948075;28;20426;-78
2023/07/02 03:53:23;;;;;;;10.10;6.40;;;26.70;50.40;;;;;;4960906;28;21000;-78
2023/07/02 03:55:52;;;;;;;8.27;6.13;;;26.70;50.40;;;;;;4957366;28;20450;-78
2023/07/02 03:58:20;;;;;;;7.60;6.37;;;26.70;50.30;;;;;;4956877;28;20467;-80
2023/07/02 04:00:49;;;;;;;10.00;6.47;;;26.70;50.30;;;;;;4959644;28;20494;-78
2023/07/02 04:03:18;;;;;;;10.00;7.00;;;26.70;50.30;;;;;;4956691;28;20533;-78
2023/07/02 04:05:46;;;;;;;9.33;6.47;;;26.70;50.30;;;;;;4956528;28;20475;-78
2023/07/02 04:08:14;;;;;;;9.67;6.43;;;26.70;50.20;;;;;;4964509;28;21020;-79
2023/07/02 04:10:42;;;;;;;9.67;6.60;;;26.70;51.00;;;;;;4963237;28;20451;-77
2023/07/02 04:13:12;;;;;;;11.77;6.70;;;26.70;50.10;;;;;;4956389;28;20506;-78
2023/07/02 04:15:40;;;;;;;9.07;6.57;;;26.70;50.20;;;;;;4955500;28;20536;-78
2023/07/02 04:18:08;;;;;;;11.73;6.13;;;26.70;50.10;;;;;;4959186;28;20442;-79
2023/07/02 04:20:38;;;;;;;9.13;6.23;;;26.70;50.20;;;;;;4960291;28;20456;-78
2023/07/02 04:23:06;;;;;;;10.23;6.70;;;26.70;50.00;;;;;;4967539;28;20444;-78
2023/07/02 04:25:35;;;;;;;10.00;6.23;;;26.70;50.10;;;;;;4956834;28;20533;-78
2023/07/02 04:28:24;;;;;;;8.70;6.07;;;26.70;49.90;;;;;;4948643;28;20458;-79
2023/07/02 04:30:52;;;;;;;7.63;5.63;;;26.70;50.00;;;;;;4954531;28;20572;-79
2023/07/02 04:33:21;;;;;;;9.27;6.20;;;26.70;50.20;;;;;;4955370;28;20417;-78
2023/07/02 04:35:49;;;;;;;7.77;5.27;;;26.70;50.00;;;;;;4956890;28;20466;-78
2023/07/02 04:38:17;;;;;;;8.00;5.90;;;26.70;49.80;;;;;;4956288;28;20497;-78
2023/07/02 04:40:46;;;;;;;11.40;6.90;;;26.70;49.80;;;;;;4961392;28;20504;-78
2023/07/02 04:43:15;;;;;;;8.70;6.37;;;26.70;49.80;;;;;;4956077;28;20445;-78
2023/07/02 04:45:47;;;;;;;13.27;6.53;;;26.70;49.80;;;;;;4956006;28;20513;-78
2023/07/02 04:48:16;;;;;;;10.93;6.00;;;26.70;49.70;;;;;;4960648;28;20458;-78
2023/07/02 04:50:44;;;;;;;9.40;6.40;;;26.70;49.70;;;;;;4953762;28;21005;-78
2023/07/02 04:53:12;;;;;;;10.87;6.00;;;26.80;49.80;;;;;;4955532;28;20529;-78
2023/07/02 04:55:41;;;;;;;12.20;6.70;;;26.80;49.60;;;;;;4962361;28;20495;-78
2023/07/02 04:58:08;;;;;;;12.07;6.30;;;26.80;49.60;;;;;;4955993;28;20426;-78
2023/07/02 05:00:36;;;;;;;10.10;5.80;;;26.80;49.50;;;;;;4958236;28;20428;-78
2023/07/02 05:03:06;;;;;;;10.50;6.20;;;26.80;49.70;;;;;;4953252;28;20541;-78
2023/07/02 05:05:35;;;;;;;10.33;6.30;;;26.80;49.40;;;;;;4950538;28;20598;-77
2023/07/02 05:08:04;;;;;;;12.00;6.13;;;26.80;49.50;;;;;;4949523;28;20526;-78
2023/07/02 05:10:32;;;;;;;13.13;6.63;;;26.70;49.40;;;;;;4954658;28;20449;-78
2023/07/02 05:13:00;;;;;;;9.27;6.20;;;26.70;49.40;;;;;;4954431;28;20479;-79
2023/07/02 05:15:28;;;;;;;11.90;6.10;;;26.80;49.40;;;;;;4956415;28;20467;-78
2023/07/02 05:17:56;;;;;;;9.93;6.43;;;26.70;49.20;;;;;;4958643;28;20910;-77
2023/07/02 05:20:26;;;;;;;11.43;7.23;;;26.80;49.40;;;;;;4957056;28;20417;-78
2023/07/02 05:22:54;;;;;;;9.77;6.03;;;26.80;49.20;;;;;;4954309;28;20513;-78
2023/07/02 05:25:22;;;;;;;10.50;6.70;;;26.80;49.30;;;;;;4955738;28;20461;-78
2023/07/02 05:27:50;;;;;;;13.73;6.53;;;26.80;49.20;;;;;;4955634;28;20460;-78
2023/07/02 05:30:18;;;;;;;10.23;6.77;;;26.80;49.20;;;;;;4955861;28;20505;-78
2023/07/02 05:32:46;;;;;;;14.67;7.47;;;26.80;49.00;;;;;;4961183;28;20447;-78
2023/07/02 05:35:14;;;;;;;9.60;6.10;;;26.80;49.00;;;;;;4956109;28;20441;-79
2023/07/02 05:37:45;;;;;;;11.00;6.40;;;26.80;49.30;;;;;;4957470;28;20457;-78
2023/07/02 05:40:13;;;;;;;10.60;5.93;;;26.80;49.00;;;;;;4950046;28;20488;-79
2023/07/02 05:42:44;;;;;;;10.63;6.40;;;26.80;49.00;;;;;;4954995;28;20514;-77
2023/07/02 05:45:12;;;;;;;11.57;6.67;;;26.80;48.90;;;;;;4957805;28;20953;-78
2023/07/02 05:47:40;;;;;;;15.53;7.60;;;26.90;48.80;;;;;;4955232;28;20430;-79
2023/07/02 05:50:10;;;;;;;11.33;6.60;;;26.90;48.80;;;;;;4955356;28;20455;-79
2023/07/02 05:52:37;;;;;;;12.47;6.27;;;26.90;48.80;;;;;;4957030;29;20482;-79
2023/07/02 05:55:10;;;;;;;10.90;6.60;;;26.90;48.90;;;;;;4953785;29;20558;-79
2023/07/02 05:57:38;;;;;;;10.50;6.43;;;26.90;48.80;;;;;;4945638;28;20421;-78
2023/07/02 06:00:07;;;;;;;12.87;6.10;;;26.90;48.70;;;;;;4955126;29;20457;-79
2023/07/02 06:02:35;;;;;;;11.20;6.57;;;26.90;48.70;;;;;;4946788;29;20447;-78
2023/07/02 06:05:04;;;;;;;14.00;6.13;;;26.90;48.70;;;;;;4956029;28;20475;-79
2023/07/02 06:07:32;;;;;;;12.10;6.17;;;26.90;48.80;;;;;;4942545;28;20503;-77
2023/07/02 06:10:00;;;;;;;18.37;7.00;;;27.00;48.60;;;;;;4955246;28;20422;-78
2023/07/02 06:12:30;;;;;;;10.13;6.30;;;27.00;48.40;;;;;;4949323;29;20430;-78
2023/07/02 06:14:58;;;;;;;10.03;6.13;;;27.10;48.30;;;;;;4953654;29;20433;-78
2023/07/02 06:17:26;;;;;;;15.03;6.37;;;27.10;48.20;;;;;;4953897;28;20460;-78
2023/07/02 06:19:54;;;;;;;17.70;6.87;;;27.10;48.10;;;;;;4954179;29;20458;-78
2023/07/02 06:22:22;;;;;;;11.13;6.63;;;27.10;48.20;;;;;;4953185;28;20515;-79
2023/07/02 06:24:50;;;;;;;14.80;7.40;;;27.10;48.00;;;;;;4958459;29;20900;-76
2023/07/02 06:27:18;;;;;;;21.37;7.20;;;27.10;48.10;;;;;;4954751;29;20542;-79
2023/07/02 06:29:48;;;;;;;13.90;6.30;;;27.10;48.00;;;;;;4953509;29;20521;-78
2023/07/02 06:32:16;;;;;;;12.23;6.60;;;27.10;48.10;;;;;;4948122;29;20443;-79
2023/07/02 06:34:45;;;;;;;14.70;7.00;;;27.10;48.00;;;;;;4954947;29;20465;-77
2023/07/02 06:37:14;;;;;;;17.23;6.50;;;27.20;48.00;;;;;;4954002;29;20452;-78
2023/07/02 06:39:42;;;;;;;14.53;7.43;;;27.10;48.10;;;;;;4954113;29;20518;-78
2023/07/02 06:42:10;;;;;;;12.80;7.00;;;27.20;47.80;;;;;;4952694;29;20517;-79
2023/07/02 06:44:38;;;;;;;16.90;7.07;;;27.20;47.80;;;;;;4953747;29;20482;-78
2023/07/02 06:47:07;;;;;;;14.60;7.10;;;27.20;47.80;;;;;;4951531;28;20441;-78
2023/07/02 06:49:37;;;;;;;14.23;7.17;;;27.20;47.70;;;;;;4946407;29;20493;-78
2023/07/02 06:52:05;;;;;;;12.10;6.00;;;27.20;47.70;;;;;;4953662;28;20429;-77
2023/07/02 06:54:34;;;;;;;13.97;6.80;;;27.30;47.50;;;;;;4953761;28;20457;-77
2023/07/02 06:57:02;;;;;;;14.27;7.20;;;27.40;47.50;;;;;;4953447;29;21043;-78
2023/07/02 06:59:30;;;;;;;11.50;7.57;;;27.40;47.40;;;;;;4955031;29;20421;-78
2023/07/02 07:01:58;;;;;;;10.83;6.47;;;27.50;47.30;;;;;;4953107;29;20494;-77
2023/07/02 07:04:28;;;;;;;9.30;5.90;;;27.50;47.20;;;;;;4947127;28;20573;-78
2023/07/02 07:06:56;;;;;;;15.03;6.93;;;27.50;47.00;;;;;;4953440;29;20455;-78
2023/07/02 07:09:25;;;;;;;15.37;7.30;;;27.50;47.00;;;;;;4948401;29;20490;-78
2023/07/02 07:11:53;;;;;;;13.77;6.80;;;27.50;46.90;;;;;;4953082;29;20429;-78
2023/07/02 07:14:21;;;;;;;8.80;6.10;;;27.60;46.80;;;;;;4953020;28;20446;-78
2023/07/02 07:16:49;;;;;;;10.70;6.57;;;27.60;47.40;;;;;;4952711;29;20994;-76
2023/07/02 07:19:18;;;;;;;12.40;7.07;;;27.60;46.50;;;;;;4952884;29;20493;-77
2023/07/02 07:21:47;;;;;;;14.73;7.00;;;27.70;46.40;;;;;;4950341;28;20965;-76
2023/07/02 07:24:15;;;;;;;11.73;6.20;;;27.70;46.30;;;;;;4952449;29;20456;-77
2023/07/02 07:26:44;;;;;;;10.10;6.03;;;27.70;46.20;;;;;;4952560;29;20513;-77
2023/07/02 07:29:12;;;;;;;13.03;6.23;;;27.70;46.20;;;;;;4951574;29;20473;-77
2023/07/02 07:31:41;;;;;;;16.13;6.73;;;27.80;46.10;;;;;;4952174;29;20493;-77
2023/07/02 07:34:09;;;;;;;9.47;6.00;;;27.90;46.00;;;;;;4952625;29;20446;-78
2023/07/02 07:36:38;;;;;;;13.13;6.40;;;27.90;45.80;;;;;;4952858;29;20449;-78
2023/07/02 07:39:07;;;;;;;11.80;6.63;;;27.90;46.40;;;;;;4950006;28;20468;-78
2023/07/02 07:41:35;;;;;;;12.63;6.13;;;28.10;45.60;;;;;;4946998;29;20432;-78
2023/07/02 07:44:03;;;;;;;9.33;6.00;;;28.00;45.50;;;;;;4947797;28;20469;-78
2023/07/02 07:46:31;;;;;;;15.50;6.87;;;28.10;45.50;;;;;;4952525;29;20557;-78
2023/07/02 07:48:59;;;;;;;10.97;6.20;;;28.10;45.20;;;;;;4952402;29;20488;-78
2023/07/02 07:51:28;;;;;;;9.53;5.40;;;28.10;45.90;;;;;;4952505;29;21031;-78
2023/07/02 07:53:58;;;;;;;9.13;5.73;;;28.10;45.10;;;;;;4952705;29;20517;-78
2023/07/02 07:56:27;;;;;;;12.97;6.27;;;28.20;45.00;;;;;;4949617;29;20463;-77
2023/07/02 07:58:55;;;;;;;14.53;6.20;;;28.20;45.10;;;;;;4951942;29;20871;-78
2023/07/02 08:01:23;;;;;;;9.97;6.40;;;28.20;45.10;;;;;;4952457;29;20429;-78
2023/07/02 08:03:51;;;;;;;13.80;6.90;;;28.20;44.80;;;;;;4952311;29;20451;-77
2023/07/02 08:06:19;;;;;;;12.37;6.57;;;28.30;44.80;;;;;;4951257;28;20489;-78
2023/07/02 08:08:47;;;;;;;13.20;6.27;;;28.30;44.70;;;;;;4949283;28;20446;-77
2023/07/02 08:11:15;;;;;;;12.43;6.63;;;28.40;44.60;;;;;;4955315;28;20494;-79
2023/07/02 08:13:45;;;;;;;17.13;7.00;;;28.30;44.60;;;;;;4951486;28;20550;-79
2023/07/02 08:16:13;;;;;;;12.50;6.20;;;28.40;44.70;;;;;;4948850;29;20447;-78
2023/07/02 08:18:41;;;;;;;11.87;5.80;;;28.60;44.70;;;;;;4955180;29;20546;-79
2023/07/02 08:21:11;;;;;;;11.00;5.53;;;28.70;44.30;;;;;;4948130;28;20466;-78
2023/07/02 08:23:39;;;;;;;6.70;5.30;;;28.70;44.80;;;;;;4948308;28;20471;-79
2023/07/02 08:26:07;;;;;;;12.20;5.60;;;28.80;44.10;;;;;;4957026;28;20546;-79
2023/07/02 08:28:35;;;;;;;9.00;6.03;;;28.90;44.00;;;;;;4956056;29;20451;-77
2023/07/02 08:31:05;;;;;;;10.40;5.70;;;29.00;43.90;;;;;;4949564;29;20459;-78
2023/07/02 08:33:33;;;;;;;9.47;5.10;;;29.10;43.70;;;;;;4954883;28;20453;-78
2023/07/02 08:36:01;;;;;;;12.20;5.60;;;29.20;43.60;;;;;;4951147;29;20461;-79
2023/07/02 08:38:29;;;;;;;11.43;5.97;;;29.20;43.00;;;;;;4954122;28;20451;-79
2023/07/02 08:40:58;;;;;;;6.97;5.50;;;29.20;43.20;;;;;;4958663;29;20425;-77
2023/07/02 08:43:27;;;;;;;12.00;5.97;;;29.20;43.10;;;;;;4951841;29;20481;-79
2023/07/02 08:45:55;;;;;;;11.30;5.93;;;29.30;43.10;;;;;;4959405;29;20513;-79
2023/07/02 08:48:26;;;;;;;9.53;5.80;;;29.30;42.90;;;;;;4955338;29;20476;-79
2023/07/02 08:50:54;;;;;;;7.70;5.20;;;29.30;43.00;;;;;;4952949;29;20464;-80
2023/07/02 08:53:25;;;;;;;11.50;5.77;;;29.40;43.00;;;;;;4955802;29;20994;-79
2023/07/02 08:55:53;;;;;;;7.30;4.70;;;29.40;42.50;;;;;;4955540;29;20519;-79
2023/07/02 08:58:21;;;;;;;8.03;5.27;;;29.50;42.60;;;;;;4953521;29;20483;-79
2023/07/02 09:01:09;;;;;;;7.47;4.70;;;29.60;42.30;;;;;;4958826;29;20487;-79
2023/07/02 09:03:39;;;;;;;7.47;5.00;;;29.70;42.20;;;;;;4963406;28;20437;-79
2023/07/02 09:06:08;;;;;;;9.03;5.10;;;29.80;41.80;;;;;;4960856;29;20449;-79
2023/07/02 09:08:36;;;;;;;10.60;5.53;;;29.90;41.80;;;;;;4955135;29;20425;-78
2023/07/02 09:11:09;;;;;;;8.50;5.90;;;30.00;41.60;;;;;;4956096;29;20485;-79
2023/07/02 09:13:45;;;;;;;8.50;4.70;;;30.00;41.50;;;;;;4955794;28;20451;-77
2023/07/02 09:16:23;;;;;;;6.50;4.63;;;30.00;41.40;;;;;;4948986;28;20507;-77
2023/07/02 09:19:02;;;;;;;27.43;4.27;;;30.00;41.60;;;;;;4948995;29;20475;-79
2023/07/02 09:21:39;;;;;;;6.80;4.77;;;29.90;41.50;;;;;;4955584;29;20475;-77
2023/07/02 09:24:18;;;;;;;9.93;5.27;;;30.00;41.70;;;;;;4954414;29;20458;-77
2023/07/02 09:26:47;;;;;;;10.80;5.60;;;30.00;41.40;;;;;;4954856;29;20506;-77
2023/07/02 09:29:17;;;;;;;7.13;4.33;;;30.10;41.40;;;;;;4954657;29;20503;-77
2023/07/02 09:31:46;;;;;;;9.63;4.97;;;30.20;41.30;;;;;;4950988;29;20547;-76
2023/07/02 09:34:36;;;;;;;11.20;4.17;;;30.30;41.00;;;;;;4954846;29;20490;-77
2023/07/02 09:37:06;;;;;;;6.20;4.13;;;30.50;40.80;;;;;;4954972;28;20453;-78
2023/07/02 09:39:36;;;;;;;15.43;4.30;;;30.50;40.10;;;;;;4954831;29;20502;-78
2023/07/02 09:42:08;;;;;;;8.70;3.30;;;27.70;34.90;;;;;;4955265;29;20466;-78
2023/07/02 09:44:36;;;;;;;8.67;2.83;;;26.30;37.00;;;;;;4957195;28;20477;-78
2023/07/02 09:47:06;;;;;;;10.37;3.13;;;25.00;38.50;;;;;;4952322;29;20530;-77
2023/07/02 09:49:36;;;;;;;17.93;3.33;;;24.90;39.80;;;;;;4958102;29;20465;-76
2023/07/02 09:52:06;;;;;;;7.77;3.00;;;24.50;40.70;;;;;;4956559;28;20451;-78
2023/07/02 09:54:34;;;;;;;4.57;2.67;;;24.10;40.60;;;;;;4959261;29;20449;-78
2023/07/02 09:57:03;;;;;;;5.00;3.20;;;23.70;39.70;;;;;;4960863;29;20489;-77
2023/07/02 09:59:31;;;;;;;9.33;2.80;;;23.70;40.50;;;;;;4964748;28;20489;-77
2023/07/02 10:01:59;;;;;;;6.07;2.70;;;23.50;41.70;;;;;;4958884;28;20439;-78
2023/07/02 10:04:29;;;;;;;8.97;3.40;;;23.40;41.90;;;;;;4962514;29;20447;-78
2023/07/02 10:07:00;;;;;;;7.80;2.80;;;23.60;41.60;;;;;;4962394;28;20521;-79
2023/07/02 10:09:36;;;;;;;10.87;3.23;;;23.20;42.20;;;;;;4960103;28;20457;-78
2023/07/02 10:12:16;;;;;;;8.53;3.10;;;23.20;42.60;;;;;;4959336;29;20534;-79
2023/07/02 10:14:51;;;;;;;6.27;3.33;;;23.60;43.10;;;;;;4962179;28;20482;-79
2023/07/02 10:17:28;;;;;;;9.60;3.63;;;24.10;43.00;;;;;;4965623;29;20451;-78
2023/07/02 10:19:58;;;;;;;8.87;2.60;;;24.80;43.20;;;;;;4959089;28;20446;-78
2023/07/02 10:22:42;;;;;;;9.50;3.17;;;24.70;40.40;;;;;;4965463;28;20433;-81
2023/07/02 10:25:11;;;;;;;5.57;3.13;;;24.50;41.30;;;;;;4967534;28;20458;-78
2023/07/02 10:27:40;;;;;;;4.70;2.37;;;24.10;41.70;;;;;;4965543;28;20449;-79
2023/07/02 10:30:09;;;;;;;8.67;3.47;;;23.50;42.80;;;;;;4962182;29;20506;-79
2023/07/02 10:32:38;;;;;;;12.20;3.50;;;23.60;42.70;;;;;;4959721;28;20459;-78
2023/07/02 10:35:15;;;;;;;12.37;4.33;;;23.10;44.60;;;;;;4965349;29;20475;-78
2023/07/02 10:37:45;;;;;;;10.00;3.70;;;23.60;45.60;;;;;;4960451;29;20421;-77
2023/07/02 10:40:14;;;;;;;6.93;3.40;;;24.70;45.50;;;;;;4959517;29;20429;-78
2023/07/02 10:42:46;;;;;;;12.43;3.87;;;25.60;42.80;;;;;;4960631;28;20443;-78
2023/07/02 10:45:14;;;;;;;9.87;3.23;;;26.30;41.50;;;;;;4960967;29;20445;-77
2023/07/02 10:47:43;;;;;;;10.27;3.70;;;26.80;40.90;;;;;;4961979;29;20593;-78
2023/07/02 10:50:16;;;;;;;4.57;2.80;;;27.00;40.30;;;;;;4960027;28;20477;-76
2023/07/02 10:52:46;;;;;;;7.20;2.87;;;27.00;39.10;;;;;;4957998;29;20466;-77
2023/07/02 10:55:18;;;;;;;7.37;2.93;;;26.90;39.00;;;;;;4961796;29;20475;-79
2023/07/02 10:57:46;;;;;;;13.97;3.77;;;26.90;40.00;;;;;;4960549;29;20439;-80
2023/07/02 11:00:15;;;;;;;7.90;3.50;;;27.00;40.70;;;;;;4962342;29;20458;-79
2023/07/02 11:02:46;;;;;;;12.87;3.37;;;27.30;40.60;;;;;;4959926;28;20434;-78
2023/07/02 11:05:15;;;;;;;13.60;3.40;;;27.60;40.10;;;;;;4961439;29;20456;-77
2023/07/02 11:07:43;;;;;;;12.90;3.90;;;27.50;40.40;;;;;;4955056;29;20529;-77
2023/07/02 11:10:20;;;;;;;8.53;3.30;;;27.50;40.10;;;;;;4957658;29;20457;-78
2023/07/02 11:12:48;;;;;;;9.43;3.17;;;27.20;40.40;;;;;;4964655;28;20473;-79
2023/07/02 11:15:17;;;;;;;9.33;3.70;;;27.60;40.80;;;;;;4957631;29;20446;-76
2023/07/02 11:17:46;;;;;;;8.03;2.90;;;27.70;40.50;;;;;;4958413;28;20421;-77
2023/07/02 11:20:15;;;;;;;9.90;3.60;;;28.00;41.10;;;;;;4959181;29;20497;-79
2023/07/02 11:22:43;;;;;;;15.47;3.70;;;28.20;40.20;;;;;;4960976;28;20434;-78
2023/07/02 11:25:15;;;;;;;8.50;4.10;;;28.30;39.30;;;;;;4962580;28;20449;-80
2023/07/02 11:27:46;;;;;;;9.07;3.60;;;28.50;39.70;;;;;;4962709;28;20458;-79
2023/07/02 11:30:15;;;;;;;12.23;4.00;;;28.50;39.20;;;;;;4963593;28;20447;-78
2023/07/02 11:32:51;;;;;;;14.23;4.10;;;28.50;38.90;;;;;;4958541;28;20426;-80
2023/07/02 11:35:22;;;;;;;9.80;3.30;;;28.30;39.30;;;;;;4966816;28;20449;-79
2023/07/02 11:38:16;;;;;;;10.23;3.77;;;28.40;39.30;;;;;;4959964;29;20455;-80
2023/07/02 11:40:55;;;;;;;5.50;3.10;;;28.40;40.10;;;;;;4971786;28;20417;-79
2023/07/02 11:43:24;;;;;;;12.43;3.10;;;28.10;39.00;;;;;;4966393;28;20479;-80
2023/07/02 11:45:52;;;;;;;6.40;3.40;;;28.00;38.70;;;;;;4969569;28;20466;-79
2023/07/02 11:48:20;;;;;;;7.77;3.13;;;27.60;38.90;;;;;;4963374;28;20476;-79
2023/07/02 11:50:48;;;;;;;12.23;3.47;;;27.70;38.50;;;;;;4963769;28;20457;-80
2023/07/02 11:53:16;;;;;;;7.23;3.13;;;27.70;38.30;;;;;;4961676;28;20479;-80
2023/07/02 11:55:45;;;;;;;12.57;3.57;;;27.90;38.70;;;;;;4958192;28;20480;-80
2023/07/02 11:58:15;;;;;;;7.40;3.60;;;28.20;38.00;;;;;;4962323;28;20429;-81
2023/07/02 12:00:43;;;;;;;12.93;4.10;;;28.00;37.20;;;;;;4963369;28;20494;-80
2023/07/02 12:03:13;;;;;;;7.87;3.70;;;27.80;37.40;;;;;;4958625;28;20459;-79
2023/07/02 12:05:42;;;;;;;6.23;3.07;;;27.70;37.70;;;;;;4955833;28;20434;-80
2023/07/02 12:08:10;;;;;;;5.70;3.33;;;27.80;37.60;;;;;;4960351;28;20484;-79
2023/07/02 12:10:38;;;;;;;12.00;3.70;;;27.60;38.60;;;;;;4962580;28;20433;-81
2023/07/02 12:13:06;;;;;;;6.50;3.40;;;27.60;39.00;;;;;;4962930;28;20502;-81
2023/07/02 12:15:35;;;;;;;11.00;3.90;;;27.70;39.50;;;;;;4961610;28;20465;-77
2023/07/02 12:18:04;;;;;;;8.13;3.83;;;28.10;39.20;;;;;;4959454;28;20442;-82
2023/07/02 12:21:01;;;;;;;6.27;3.40;;;28.60;40.00;;;;;;4967616;28;20445;-79
2023/07/02 12:27:07;;;;;;;5.70;3.40;;;29.90;37.80;;;;;;4963234;28;20527;-78
2023/07/02 12:30:00;;;;;;;3.77;3.43;;;30.10;37.40;;;;;;4960115;28;20434;-77
2023/07/02 12:39:58;;;;;;;6.67;3.30;;;29.10;38.60;;;;;;4859537;29;20433;-80
2023/07/02 12:46:32;;;;;;;8.47;3.60;;;28.50;38.20;;;;;;4927867;29;20456;-80
2023/07/02 12:49:59;;;;;;;9.43;3.23;;;28.30;38.20;;;;;;4875248;29;20422;-80
2023/07/02 12:53:32;;;;;;;7.17;3.40;;;28.40;38.30;;;;;;4851933;29;20452;-80
2023/07/02 12:56:50;;;;;;;5.87;3.10;;;28.70;37.90;;;;;;4861672;29;20483;-79
2023/07/02 13:00:07;;;;;;;7.30;3.70;;;28.70;38.30;;;;;;4853359;29;20415;-79
2023/07/02 13:03:31;;;;;;;7.50;2.90;;;28.60;37.50;;;;;;4794557;29;20513;-79
2023/07/02 13:17:11;;;;;;;10.63;3.30;;;27.80;38.00;;;;;;4853451;29;20450;-80
2023/07/02 13:23:39;;;;;;;12.20;3.10;;;27.90;37.70;;;;;;4848969;29;20427;-79
2023/07/02 13:26:20;;;;;;;6.90;3.60;;;28.00;37.70;;;;;;4863642;29;20476;-79
2023/07/02 13:29:33;;;;;;;;;;;;;;;;;;;;;